sensor_id;sensor_type;location;lat;lon;timestamp;temperature;humidity
5828;DHT22;42583;50.240;8.444;2022-08-03T00:08:27;21.80;44.40
5828;DHT22;42583;50.240;8.444;2022-08-03T00:23:27;21.70;44.50
5828;DHT22;42583;50.240;8.444;2022-08-03T00:38:28;21.60;44.50
5828;DHT22;42583;50.240;8.444;2022-08-03T00:53:29;21.60;44.40
5828;DHT22;42583;50.240;8.444;2022-08-03T01:23:58;21.50;44.40
5828;DHT22;42583;50.240;8.444;2022-08-03T01:39:04;21.50;44.20
5828;DHT22;42583;50.240;8.444;2022-08-03T01:54:09;21.50;43.90
5828;DHT22;42583;50.240;8.444;2022-08-03T02:09:13;21.50;43.70
5828;DHT22;42583;50.240;8.444;2022-08-03T02:24:14;21.60;43.60
5828;DHT22;42583;50.240;8.444;2022-08-03T02:39:18;21.50;43.50
5828;DHT22;42583;50.240;8.444;2022-08-03T02:54:21;21.50;43.60
5828;DHT22;42583;50.240;8.444;2022-08-03T03:09:22;21.40;43.90
5828;DHT22;42583;50.240;8.444;2022-08-03T03:24:24;21.20;44.00
5828;DHT22;42583;50.240;8.444;2022-08-03T03:39:25;21.00;44.20
5828;DHT22;42583;50.240;8.444;2022-08-03T03:54:26;21.00;44.60
5828;DHT22;42583;50.240;8.444;2022-08-03T04:09:39;21.00;44.80
5828;DHT22;42583;50.240;8.444;2022-08-03T04:25:02;21.10;45.00
5828;DHT22;42583;50.240;8.444;2022-08-03T04:40:10;21.20;45.00
5828;DHT22;42583;50.240;8.444;2022-08-03T04:55:30;21.30;44.90
5828;DHT22;42583;50.240;8.444;2022-08-03T05:10:31;21.40;44.70
5828;DHT22;42583;50.240;8.444;2022-08-03T05:25:32;21.50;44.50
5828;DHT22;42583;50.240;8.444;2022-08-03T05:40:32;21.70;44.50
5828;DHT22;42583;50.240;8.444;2022-08-03T05:55:33;21.90;44.70
5828;DHT22;42583;50.240;8.444;2022-08-03T06:10:33;22.30;44.60
5828;DHT22;42583;50.240;8.444;2022-08-03T06:25:34;22.80;44.40
5828;DHT22;42583;50.240;8.444;2022-08-03T06:40:36;23.30;44.10
5828;DHT22;42583;50.240;8.444;2022-08-03T06:55:39;23.80;43.80
5828;DHT22;42583;50.240;8.444;2022-08-03T07:10:39;24.30;43.40
5828;DHT22;42583;50.240;8.444;2022-08-03T07:25:40;24.80;43.20
5828;DHT22;42583;50.240;8.444;2022-08-03T07:40:41;25.50;43.40
5828;DHT22;42583;50.240;8.444;2022-08-03T07:55:41;26.20;43.20
5828;DHT22;42583;50.240;8.444;2022-08-03T08:10:42;26.60;42.50
5828;DHT22;42583;50.240;8.444;2022-08-03T08:25:42;27.20;41.20
5828;DHT22;42583;50.240;8.444;2022-08-03T08:40:43;27.80;39.90
5828;DHT22;42583;50.240;8.444;2022-08-03T08:55:46;28.40;39.30
5828;DHT22;42583;50.240;8.444;2022-08-03T09:10:46;28.90;38.80
5828;DHT22;42583;50.240;8.444;2022-08-03T09:25:47;29.90;38.20
5828;DHT22;42583;50.240;8.444;2022-08-03T09:40:56;30.40;36.70
5828;DHT22;42583;50.240;8.444;2022-08-03T09:56:01;31.00;36.90
5828;DHT22;42583;50.240;8.444;2022-08-03T10:11:02;31.90;35.70
5828;DHT22;42583;50.240;8.444;2022-08-03T10:26:03;32.40;35.40
5828;DHT22;42583;50.240;8.444;2022-08-03T10:41:06;32.80;33.70
5828;DHT22;42583;50.240;8.444;2022-08-03T11:11:50;34.20;32.40
5828;DHT22;42583;50.240;8.444;2022-08-03T11:57:32;35.40;30.50
5828;DHT22;42583;50.240;8.444;2022-08-03T12:12:32;35.50;30.20
5828;DHT22;42583;50.240;8.444;2022-08-03T12:27:34;36.70;30.40
5828;DHT22;42583;50.240;8.444;2022-08-03T12:42:37;37.50;29.40
5828;DHT22;42583;50.240;8.444;2022-08-03T12:57:41;37.40;29.10
5828;DHT22;42583;50.240;8.444;2022-08-03T13:12:46;37.50;28.60
5828;DHT22;42583;50.240;8.444;2022-08-03T13:27:47;37.00;28.00
5828;DHT22;42583;50.240;8.444;2022-08-03T13:42:48;37.30;28.00
5828;DHT22;42583;50.240;8.444;2022-08-03T13:57:49;37.50;27.50
5828;DHT22;42583;50.240;8.444;2022-08-03T14:12:49;37.70;27.50
5828;DHT22;42583;50.240;8.444;2022-08-03T14:27:50;37.50;27.20
5828;DHT22;42583;50.240;8.444;2022-08-03T14:42:50;37.40;27.00
5828;DHT22;42583;50.240;8.444;2022-08-03T14:57:51;36.70;27.80
5828;DHT22;42583;50.240;8.444;2022-08-03T15:12:51;36.60;27.40
5828;DHT22;42583;50.240;8.444;2022-08-03T15:27:54;35.10;28.40
5828;DHT22;42583;50.240;8.444;2022-08-03T15:42:55;34.10;29.10
5828;DHT22;42583;50.240;8.444;2022-08-03T15:57:56;33.30;29.70
5828;DHT22;42583;50.240;8.444;2022-08-03T16:12:57;32.80;30.00
5828;DHT22;42583;50.240;8.444;2022-08-03T16:27:59;32.10;30.40
5828;DHT22;42583;50.240;8.444;2022-08-03T16:43:00;31.70;30.90
5828;DHT22;42583;50.240;8.444;2022-08-03T16:58:01;31.40;31.40
5828;DHT22;42583;50.240;8.444;2022-08-03T17:13:02;31.20;31.90
5828;DHT22;42583;50.240;8.444;2022-08-03T17:28:03;31.10;31.60
5828;DHT22;42583;50.240;8.444;2022-08-03T17:43:04;30.80;32.00
5828;DHT22;42583;50.240;8.444;2022-08-03T17:58:12;30.50;32.00
5828;DHT22;42583;50.240;8.444;2022-08-03T18:13:19;30.10;32.10
5828;DHT22;42583;50.240;8.444;2022-08-03T18:28:20;29.80;32.30
5828;DHT22;42583;50.240;8.444;2022-08-03T18:43:21;29.50;32.70
5828;DHT22;42583;50.240;8.444;2022-08-03T19:13:45;28.90;33.10
5828;DHT22;42583;50.240;8.444;2022-08-03T19:28:49;28.40;33.90
5828;DHT22;42583;50.240;8.444;2022-08-03T19:43:57;27.80;34.30
5828;DHT22;42583;50.240;8.444;2022-08-03T19:58:58;27.30;34.80
5828;DHT22;42583;50.240;8.444;2022-08-03T20:14:03;27.10;35.20
5828;DHT22;42583;50.240;8.444;2022-08-03T20:29:05;26.90;35.60
5828;DHT22;42583;50.240;8.444;2022-08-03T20:44:05;26.90;36.10
5828;DHT22;42583;50.240;8.444;2022-08-03T20:59:06;27.00;36.40
5828;DHT22;42583;50.240;8.444;2022-08-03T21:14:25;27.00;36.20
5828;DHT22;42583;50.240;8.444;2022-08-03T21:29:27;27.10;36.30
5828;DHT22;42583;50.240;8.444;2022-08-03T21:44:27;27.10;36.10
5828;DHT22;42583;50.240;8.444;2022-08-03T21:59:31;27.00;36.10
5828;DHT22;42583;50.240;8.444;2022-08-03T22:14:34;27.00;36.40
5828;DHT22;42583;50.240;8.444;2022-08-03T22:29:35;27.00;36.40
5828;DHT22;42583;50.240;8.444;2022-08-03T22:44:39;26.90;36.50
5828;DHT22;42583;50.240;8.444;2022-08-03T22:59:39;27.00;36.60
5828;DHT22;42583;50.240;8.444;2022-08-03T23:14:43;26.90;36.70
5828;DHT22;42583;50.240;8.444;2022-08-03T23:29:44;26.90;36.80
5828;DHT22;42583;50.240;8.444;2022-08-03T23:44:46;26.90;36.90
